Time,TemperatureF,DewpointF,PressureIn,WindDirection,WindDirectionDegrees,WindSpeedMPH,WindSpeedGustMPH,Humidity,HourlyPrecipIn,Conditions,Clouds,dailyrainin,SoftwareType,DateUTC
2013-02-18 00:01:00,43.2,33.7,29.57,ESE,118,1.0,7.0,69,0.00,,---,0.00,VWS V14.01,2013-02-18 06:01:00,
2013-02-18 00:07:00,43.2,33.7,29.57,ESE,102,1.0,4.0,69,0.00,,---,0.00,VWS V14.01,2013-02-18 06:07:00,
2013-02-18 00:13:00,43.2,33.7,29.58,ESE,102,1.0,4.0,69,0.00,,---,0.00,VWS V14.01,2013-02-18 06:13:00,
2013-02-18 00:19:00,42.9,33.4,29.57,ESE,102,1.0,4.0,69,0.00,,---,0.00,VWS V14.01,2013-02-18 06:19:00,
2013-02-18 00:25:00,42.5,33.4,29.57,ESE,102,0.0,4.0,70,0.00,,---,0.00,VWS V14.01,2013-02-18 06:25:00,
2013-02-18 00:31:00,42.3,33.2,29.57,ESE,103,1.0,4.0,70,0.00,,---,0.00,VWS V14.01,2013-02-18 06:31:00,
2013-02-18 00:37:00,42.2,33.5,29.57,ESE,106,0.0,4.0,71,0.00,,---,0.00,VWS V14.01,2013-02-18 06:37:00,
2013-02-18 00:43:00,42.1,33.4,29.57,ESE,107,0.0,4.0,71,0.00,,---,0.00,VWS V14.01,2013-02-18 06:43:00,
2013-02-18 00:49:00,41.8,33.1,29.56,ESE,106,0.0,4.0,71,0.00,,---,0.00,VWS V14.01,2013-02-18 06:49:00,
2013-02-18 00:55:00,41.2,32.5,29.56,ESE,106,0.0,4.0,71,0.00,,---,0.00,VWS V14.01,2013-02-18 06:55:00,
2013-02-18 01:01:00,40.7,32.4,29.56,ESE,107,1.0,4.0,72,0.00,,---,0.00,VWS V14.01,2013-02-18 07:01:00,
2013-02-18 01:07:00,40.3,32.3,29.56,ESE,106,0.0,2.0,73,0.00,,---,0.00,VWS V14.01,2013-02-18 07:07:00,
2013-02-18 01:13:00,40.2,32.6,29.55,ESE,107,0.0,2.0,74,0.00,,---,0.00,VWS V14.01,2013-02-18 07:13:00,
2013-02-18 01:19:00,40.1,32.5,29.56,ESE,106,0.0,2.0,74,0.00,,---,0.00,VWS V14.01,2013-02-18 07:19:00,
2013-02-18 01:25:00,39.8,31.9,29.56,ESE,106,0.0,2.0,73,0.00,,---,0.00,VWS V14.01,2013-02-18 07:25:00,
2013-02-18 01:31:00,39.1,30.9,29.57,WNW,287,3.0,5.0,72,0.00,,---,0.00,VWS V14.01,2013-02-18 07:31:00,
2013-02-18 01:38:00,37.7,31.1,29.59,West,281,5.0,13.0,77,0.00,,---,0.00,VWS V14.01,2013-02-18 07:38:00,
2013-02-18 01:44:00,37.7,31.8,29.60,WNW,295,4.0,13.0,79,0.00,,---,0.00,VWS V14.01,2013-02-18 07:44:00,
2013-02-18 01:50:00,37.8,31.6,29.60,West,281,5.0,13.0,78,0.00,,---,0.00,VWS V14.01,2013-02-18 07:50:00,
2013-02-18 01:56:00,37.7,31.8,29.60,NW,306,3.0,13.0,79,0.00,,---,0.00,VWS V14.01,2013-02-18 07:56:00,
2013-02-18 02:01:00,37.5,31.6,29.60,NW,306,0.0,13.0,79,0.00,,---,0.00,VWS V14.01,2013-02-18 08:01:00,
2013-02-18 02:06:00,37.2,31.3,29.59,NW,306,0.0,0.0,79,0.00,,---,0.00,VWS V14.01,2013-02-18 08:06:00,
2013-02-18 02:12:00,36.9,31.0,29.59,NW,306,0.0,3.0,79,0.00,,---,0.00,VWS V14.01,2013-02-18 08:12:00,
2013-02-18 02:18:00,36.6,31.0,29.58,NW,306,0.0,3.0,80,0.00,,---,0.00,VWS V14.01,2013-02-18 08:18:00,
2013-02-18 02:24:00,36.6,31.3,29.58,NW,306,0.0,3.0,81,0.00,,---,0.00,VWS V14.01,2013-02-18 08:24:00,
2013-02-18 02:30:00,36.6,31.3,29.58,NW,306,0.0,3.0,81,0.00,,---,0.00,VWS V14.01,2013-02-18 08:30:00,
2013-02-18 02:36:00,36.7,31.4,29.57,NW,306,0.0,2.0,81,0.00,,---,0.00,VWS V14.01,2013-02-18 08:36:00,
2013-02-18 02:42:00,36.6,31.3,29.58,NW,306,0.0,2.0,81,0.00,,---,0.00,VWS V14.01,2013-02-18 08:42:00,
2013-02-18 02:48:00,36.3,31.0,29.57,NW,306,1.0,2.0,81,0.00,,---,0.00,VWS V14.01,2013-02-18 08:48:00,
2013-02-18 02:54:00,36.2,31.2,29.57,NW,306,0.0,2.0,82,0.00,,---,0.00,VWS V14.01,2013-02-18 08:54:00,
2013-02-18 03:00:00,36.4,31.4,29.57,NW,306,0.0,2.0,82,0.00,,---,0.00,VWS V14.01,2013-02-18 09:00:00,
2013-02-18 03:06:00,36.8,31.8,29.57,NW,313,10.0,10.0,82,0.00,,---,0.00,VWS V14.01,2013-02-18 09:06:00,
2013-02-18 03:12:00,36.7,31.4,29.57,NW,308,5.0,10.0,81,0.00,,---,0.00,VWS V14.01,2013-02-18 09:12:00,
2013-02-18 03:18:00,36.4,31.1,29.57,NW,320,11.0,12.0,81,0.00,,---,0.00,VWS V14.01,2013-02-18 09:18:00,
2013-02-18 03:24:00,36.3,31.3,29.57,NNW,339,11.0,14.0,82,0.00,,---,0.00,VWS V14.01,2013-02-18 09:24:00,
2013-02-18 03:30:00,36.8,31.8,29.57,NNW,342,11.0,14.0,82,0.00,,---,0.00,VWS V14.01,2013-02-18 09:30:00,
2013-02-18 03:36:00,37.0,31.7,29.56,NNW,337,6.0,12.0,81,0.00,,---,0.00,VWS V14.01,2013-02-18 09:36:00,
2013-02-18 03:43:00,37.0,31.4,29.57,North,355,11.0,12.0,80,0.00,,---,0.00,VWS V14.01,2013-02-18 09:43:00,
2013-02-18 03:49:00,37.0,31.4,29.57,NNW,341,13.0,13.0,80,0.00,,---,0.00,VWS V14.01,2013-02-18 09:49:00,
2013-02-18 03:55:00,37.4,31.5,29.57,NNW,343,8.0,13.0,79,0.00,,---,0.00,VWS V14.01,2013-02-18 09:55:00,
2013-02-18 04:01:00,37.8,31.6,29.58,NNW,342,9.0,15.0,78,0.00,,---,0.00,VWS V14.01,2013-02-18 10:01:00,
2013-02-18 04:07:00,38.2,32.0,29.58,North,355,4.0,13.0,78,0.00,,---,0.00,VWS V14.01,2013-02-18 10:07:00,
2013-02-18 04:13:00,38.6,32.0,29.58,North,360,9.0,15.0,77,0.00,,---,0.00,VWS V14.01,2013-02-18 10:13:00,
2013-02-18 04:19:00,38.6,32.0,29.58,North,350,10.0,15.0,77,0.00,,---,0.00,VWS V14.01,2013-02-18 10:19:00,
2013-02-18 04:25:00,38.5,31.9,29.58,North,360,3.0,15.0,77,0.00,,---,0.00,VWS V14.01,2013-02-18 10:25:00,
2013-02-18 04:31:00,38.2,32.0,29.58,North,351,6.0,15.0,78,0.00,,---,0.00,VWS V14.01,2013-02-18 10:31:00,
2013-02-18 04:39:00,37.5,31.6,29.58,North,355,8.0,12.0,79,0.00,,---,0.00,VWS V14.01,2013-02-18 10:39:00,
2013-02-18 04:45:00,37.4,31.5,29.58,North,355,8.0,13.0,79,0.00,,---,0.00,VWS V14.01,2013-02-18 10:45:00,
2013-02-18 04:51:00,37.4,31.5,29.58,NNW,339,6.0,13.0,79,0.00,,---,0.00,VWS V14.01,2013-02-18 10:51:00,
2013-02-18 04:57:00,37.0,31.4,29.58,NNW,333,7.0,14.0,80,0.00,,---,0.00,VWS V14.01,2013-02-18 10:57:00,
2013-02-18 05:03:00,36.7,31.1,29.59,NNW,333,6.0,10.0,80,0.00,,---,0.00,VWS V14.01,2013-02-18 11:03:00,
2013-02-18 05:09:00,36.6,31.3,29.59,North,355,4.0,13.0,81,0.00,,---,0.00,VWS V14.01,2013-02-18 11:09:00,
2013-02-18 05:15:00,36.4,31.1,29.59,NNW,329,7.0,13.0,81,0.00,,---,0.00,VWS V14.01,2013-02-18 11:15:00,
2013-02-18 05:22:00,36.3,31.3,29.59,NW,325,9.0,13.0,82,0.00,,---,0.00,VWS V14.01,2013-02-18 11:22:00,
2013-02-18 05:28:00,36.4,31.7,29.59,NNW,346,13.0,17.0,83,0.00,,---,0.00,VWS V14.01,2013-02-18 11:28:00,
2013-02-18 05:34:00,37.1,32.1,29.59,NNW,338,7.0,21.0,82,0.00,,---,0.00,VWS V14.01,2013-02-18 11:34:00,
2013-02-18 05:40:00,37.7,32.4,29.59,North,355,15.0,21.0,81,0.00,,---,0.00,VWS V14.01,2013-02-18 11:40:00,
2013-02-18 05:46:00,37.8,32.5,29.59,NW,326,8.0,21.0,81,0.00,,---,0.00,VWS V14.01,2013-02-18 11:46:00,
2013-02-18 05:52:00,37.7,32.1,29.59,NNW,348,10.0,21.0,80,0.00,,---,0.00,VWS V14.01,2013-02-18 11:52:00,
2013-02-18 05:58:00,37.7,32.1,29.61,NW,326,8.0,21.0,80,0.00,,---,0.00,VWS V14.01,2013-02-18 11:58:00,
2013-02-18 06:04:00,37.3,31.7,29.62,NNW,337,8.0,11.0,80,0.00,,---,0.00,VWS V14.01,2013-02-18 12:04:00,
2013-02-18 06:10:00,37.0,31.7,29.63,NNW,344,8.0,15.0,81,0.00,,---,0.00,VWS V14.01,2013-02-18 12:10:00,
2013-02-18 06:16:00,36.6,31.3,29.63,NNW,340,9.0,15.0,81,0.00,,---,0.00,VWS V14.01,2013-02-18 12:16:00,
2013-02-18 06:22:00,36.4,31.1,29.63,NNW,329,4.0,15.0,81,0.00,,---,0.00,VWS V14.01,2013-02-18 12:22:00,
2013-02-18 06:28:00,36.1,31.1,29.64,NNW,333,6.0,15.0,82,0.00,,---,0.00,VWS V14.01,2013-02-18 12:28:00,
2013-02-18 06:34:00,36.0,31.0,29.63,NNW,342,9.0,15.0,82,0.00,,---,0.00,VWS V14.01,2013-02-18 12:34:00,
2013-02-18 06:40:00,35.9,31.0,29.63,NW,317,7.0,15.0,82,0.00,,---,0.00,VWS V14.01,2013-02-18 12:40:00,
2013-02-18 06:46:00,35.8,30.9,29.63,North,355,9.0,15.0,82,0.00,,---,0.00,VWS V14.01,2013-02-18 12:46:00,
2013-02-18 06:52:00,35.8,30.9,29.63,North,360,8.0,15.0,82,0.00,,---,0.00,VWS V14.01,2013-02-18 12:52:00,
2013-02-18 06:58:00,35.7,30.8,29.64,NNW,336,9.0,18.0,82,0.00,,---,0.00,VWS V14.01,2013-02-18 12:58:00,
2013-02-18 07:04:00,35.7,30.8,29.65,North,11,2.0,14.0,82,0.00,,---,0.00,VWS V14.01,2013-02-18 13:04:00,
2013-02-18 07:10:00,35.7,30.8,29.64,NW,323,8.0,15.0,82,0.00,,---,0.00,VWS V14.01,2013-02-18 13:10:00,
2013-02-18 07:16:00,35.6,30.7,29.65,North,360,8.0,15.0,82,0.00,,---,0.00,VWS V14.01,2013-02-18 13:16:00,
2013-02-18 07:23:00,35.8,30.9,29.66,North,350,5.0,15.0,82,0.00,,---,0.00,VWS V14.01,2013-02-18 13:23:00,
2013-02-18 07:29:00,36.0,30.8,29.67,North,360,7.0,15.0,81,0.00,,---,0.00,VWS V14.01,2013-02-18 13:29:00,
2013-02-18 07:35:00,36.1,30.8,29.67,North,355,4.0,9.0,81,0.00,,---,0.00,VWS V14.01,2013-02-18 13:35:00,
2013-02-18 07:41:00,36.1,30.8,29.66,NNW,342,5.0,11.0,81,0.00,,---,0.00,VWS V14.01,2013-02-18 13:41:00,
2013-02-18 07:47:00,36.0,30.8,29.67,NW,313,9.0,11.0,81,0.00,,---,0.00,VWS V14.01,2013-02-18 13:47:00,
2013-02-18 07:53:00,36.0,31.0,29.67,NNW,329,8.0,11.0,82,0.00,,---,0.00,VWS V14.01,2013-02-18 13:53:00,
2013-02-18 07:59:00,36.0,31.0,29.67,NW,322,5.0,11.0,82,0.00,,---,0.00,VWS V14.01,2013-02-18 13:59:00,
2013-02-18 08:05:00,36.1,31.1,29.68,NW,314,5.0,10.0,82,0.00,,---,0.00,VWS V14.01,2013-02-18 14:05:00,
2013-02-18 08:11:00,36.1,31.1,29.67,NNW,327,6.0,12.0,82,0.00,,---,0.00,VWS V14.01,2013-02-18 14:11:00,
2013-02-18 08:17:00,36.2,31.2,29.68,NW,321,7.0,12.0,82,0.00,,---,0.00,VWS V14.01,2013-02-18 14:17:00,
2013-02-18 08:23:00,36.2,31.2,29.68,NW,319,10.0,12.0,82,0.00,,---,0.00,VWS V14.01,2013-02-18 14:23:00,
2013-02-18 08:29:00,36.1,31.1,29.68,NNW,327,12.0,13.0,82,0.00,,---,0.00,VWS V14.01,2013-02-18 14:29:00,
2013-02-18 08:35:00,36.1,31.1,29.68,NW,321,12.0,15.0,82,0.00,,---,0.00,VWS V14.01,2013-02-18 14:35:00,
2013-02-18 08:41:00,36.2,31.2,29.68,NW,319,12.0,15.0,82,0.00,,---,0.00,VWS V14.01,2013-02-18 14:41:00,
2013-02-18 08:47:00,36.2,31.2,29.69,NW,319,15.0,15.0,82,0.00,,---,0.00,VWS V14.01,2013-02-18 14:47:00,
2013-02-18 08:53:00,36.2,31.2,29.70,NW,317,7.0,15.0,82,0.00,,---,0.00,VWS V14.01,2013-02-18 14:53:00,
2013-02-18 08:59:00,36.2,30.9,29.70,NW,317,13.0,15.0,81,0.00,,---,0.00,VWS V14.01,2013-02-18 14:59:00,
2013-02-18 09:05:00,36.2,30.9,29.70,NW,306,15.0,21.0,81,0.00,,---,0.00,VWS V14.01,2013-02-18 15:05:00,
2013-02-18 09:11:00,36.4,31.1,29.70,NW,326,8.0,21.0,81,0.00,,---,0.00,VWS V14.01,2013-02-18 15:11:00,
2013-02-18 09:17:00,36.6,31.0,29.70,NW,319,16.0,24.0,80,0.00,,---,0.00,VWS V14.01,2013-02-18 15:17:00,
2013-02-18 09:24:00,36.8,31.2,29.70,NW,318,10.0,24.0,80,0.00,,---,0.00,VWS V14.01,2013-02-18 15:24:00,
2013-02-18 09:30:00,36.9,31.0,29.71,NW,325,10.0,24.0,79,0.00,,---,0.00,VWS V14.01,2013-02-18 15:30:00,
2013-02-18 09:36:00,36.8,30.9,29.71,NNW,336,8.0,19.0,79,0.00,,---,0.00,VWS V14.01,2013-02-18 15:36:00,
2013-02-18 09:42:00,36.8,30.9,29.71,North,355,14.0,19.0,79,0.00,,---,0.00,VWS V14.01,2013-02-18 15:42:00,
2013-02-18 09:48:00,36.8,30.9,29.71,NNW,338,19.0,19.0,79,0.00,,---,0.00,VWS V14.01,2013-02-18 15:48:00,
2013-02-18 09:54:00,36.7,30.8,29.71,NW,316,14.0,21.0,79,0.00,,---,0.00,VWS V14.01,2013-02-18 15:54:00,
2013-02-18 10:00:00,36.6,30.7,29.72,NW,324,16.0,21.0,79,0.00,,---,0.00,VWS V14.01,2013-02-18 16:00:00,
2013-02-18 10:06:00,36.5,30.6,29.72,NNW,331,16.0,25.0,79,0.00,,---,0.00,VWS V14.01,2013-02-18 16:06:00,
2013-02-18 10:12:00,36.3,30.4,29.73,NNW,338,13.0,28.0,79,0.00,,---,0.00,VWS V14.01,2013-02-18 16:12:00,
2013-02-18 10:18:00,35.8,30.5,29.73,NW,318,22.0,28.0,81,0.00,,---,0.00,VWS V14.01,2013-02-18 16:18:00,
2013-02-18 10:24:00,34.4,30.1,29.74,NNW,327,18.0,28.0,84,0.00,,---,0.00,VWS V14.01,2013-02-18 16:24:00,
2013-02-18 10:36:00,32.7,29.5,29.75,NNW,329,13.0,21.0,88,0.00,,---,0.00,VWS V14.01,2013-02-18 16:36:00,
2013-02-18 10:42:00,32.3,29.4,29.75,NW,304,12.0,29.0,89,0.00,,---,0.00,VWS V14.01,2013-02-18 16:42:00,
2013-02-18 10:48:00,31.7,28.8,29.76,NW,307,9.0,29.0,89,0.00,,---,0.00,VWS V14.01,2013-02-18 16:48:00,
2013-02-18 10:57:00,31.4,28.8,29.77,NW,311,9.0,29.0,90,0.00,,---,0.00,VWS V14.01,2013-02-18 16:57:00,
2013-02-18 11:03:00,31.2,28.6,29.77,NW,325,11.0,15.0,90,0.00,,---,0.00,VWS V14.01,2013-02-18 17:03:00,
2013-02-18 11:09:00,31.1,28.5,29.77,NW,317,13.0,22.0,90,0.00,,---,0.00,VWS V14.01,2013-02-18 17:09:00,
2013-02-18 11:15:00,31.0,28.4,29.77,NW,315,23.0,25.0,90,0.00,,---,0.00,VWS V14.01,2013-02-18 17:15:00,
2013-02-18 11:21:00,31.0,28.4,29.78,WNW,283,12.0,27.0,90,0.00,,---,0.00,VWS V14.01,2013-02-18 17:21:00,
2013-02-18 11:27:00,31.0,28.1,29.78,NW,317,18.0,29.0,89,0.00,,---,0.00,VWS V14.01,2013-02-18 17:27:00,
2013-02-18 11:33:00,31.0,27.9,29.79,NW,313,10.0,24.0,88,0.00,,---,0.00,VWS V14.01,2013-02-18 17:33:00,
2013-02-18 11:39:00,31.0,27.6,29.79,WNW,297,13.0,24.0,87,0.00,,---,0.00,VWS V14.01,2013-02-18 17:39:00,
2013-02-18 11:45:00,31.0,27.6,29.79,NW,304,10.0,26.0,87,0.01,,---,0.01,VWS V14.01,2013-02-18 17:45:00,
2013-02-18 11:51:00,30.9,26.9,29.80,WNW,288,9.0,27.0,85,0.01,,---,0.01,VWS V14.01,2013-02-18 17:51:00,
2013-02-18 11:57:00,30.8,26.5,29.80,WNW,285,22.0,28.0,84,0.01,,---,0.01,VWS V14.01,2013-02-18 17:57:00,
2013-02-18 12:03:00,30.9,26.4,29.81,NNW,327,20.0,27.0,83,0.01,,---,0.01,VWS V14.01,2013-02-18 18:03:00,
2013-02-18 12:09:00,31.2,26.4,29.81,WNW,298,15.0,29.0,82,0.02,,---,0.02,VWS V14.01,2013-02-18 18:09:00,
2013-02-18 12:15:00,31.2,26.1,29.81,NW,311,12.0,29.0,81,0.02,,---,0.02,VWS V14.01,2013-02-18 18:15:00,
2013-02-18 12:22:00,30.9,25.5,29.81,NNW,328,12.0,30.0,80,0.02,,---,0.02,VWS V14.01,2013-02-18 18:22:00,
2013-02-18 12:28:00,30.8,25.4,29.82,NNW,331,17.0,31.0,80,0.02,,---,0.02,VWS V14.01,2013-02-18 18:28:00,
2013-02-18 12:34:00,30.7,25.0,29.82,NW,325,14.0,29.0,79,0.02,,---,0.02,VWS V14.01,2013-02-18 18:34:00,
2013-02-18 12:40:00,30.6,24.6,29.82,NW,326,15.0,29.0,78,0.02,,---,0.02,VWS V14.01,2013-02-18 18:40:00,
2013-02-18 12:46:00,30.7,25.0,29.82,NW,318,14.0,29.0,79,0.02,,---,0.02,VWS V14.01,2013-02-18 18:46:00,
2013-02-18 12:54:00,30.5,24.5,29.83,NW,321,11.0,31.0,78,0.02,,---,0.02,VWS V14.01,2013-02-18 18:54:00,
2013-02-18 13:00:00,30.2,23.9,29.83,WNW,296,10.0,31.0,77,0.02,,---,0.02,VWS V14.01,2013-02-18 19:00:00,
2013-02-18 13:06:00,29.7,23.4,29.83,NNW,346,15.0,27.0,77,0.01,,---,0.02,VWS V14.01,2013-02-18 19:06:00,
2013-02-18 13:12:00,29.4,23.4,29.83,NNW,330,11.0,27.0,78,0.01,,---,0.02,VWS V14.01,2013-02-18 19:12:00,
2013-02-18 13:18:00,29.4,23.4,29.84,NW,309,12.0,27.0,78,0.01,,---,0.02,VWS V14.01,2013-02-18 19:18:00,
2013-02-18 13:24:00,29.2,23.2,29.84,NW,314,11.0,27.0,78,0.01,,---,0.02,VWS V14.01,2013-02-18 19:24:00,
2013-02-18 13:30:00,29.1,23.1,29.84,NW,316,16.0,27.0,78,0.01,,---,0.02,VWS V14.01,2013-02-18 19:30:00,
2013-02-18 13:36:00,28.9,23.2,29.85,NW,306,7.0,25.0,79,0.00,,---,0.02,VWS V14.01,2013-02-18 19:36:00,
2013-02-18 13:43:00,29.0,23.0,29.85,NW,315,8.0,25.0,78,0.00,,---,0.02,VWS V14.01,2013-02-18 19:43:00,
2013-02-18 13:49:00,29.8,23.8,29.85,NW,306,18.0,27.0,78,0.00,,---,0.02,VWS V14.01,2013-02-18 19:49:00,
2013-02-18 13:55:00,30.0,22.7,29.85,WNW,291,12.0,32.0,74,0.00,,---,0.02,VWS V14.01,2013-02-18 19:55:00,
2013-02-18 14:01:00,29.9,22.3,29.86,WNW,296,15.0,32.0,73,0.00,,---,0.02,VWS V14.01,2013-02-18 20:01:00,
2013-02-18 14:07:00,30.2,23.2,29.86,NW,317,20.0,23.0,75,0.00,,---,0.02,VWS V14.01,2013-02-18 20:07:00,
2013-02-18 14:13:00,30.0,22.7,29.86,NW,310,25.0,31.0,74,0.00,,---,0.02,VWS V14.01,2013-02-18 20:13:00,
2013-02-18 14:19:00,29.8,22.5,29.87,NW,306,16.0,31.0,74,0.00,,---,0.02,VWS V14.01,2013-02-18 20:19:00,
2013-02-18 14:25:00,30.0,22.4,29.87,NNW,332,15.0,31.0,73,0.00,,---,0.02,VWS V14.01,2013-02-18 20:25:00,
2013-02-18 14:31:00,29.8,21.9,29.87,NW,326,10.0,31.0,72,0.00,,---,0.02,VWS V14.01,2013-02-18 20:31:00,
2013-02-18 14:37:00,29.1,21.5,29.88,WNW,294,19.0,25.0,73,0.00,,---,0.02,VWS V14.01,2013-02-18 20:37:00,
2013-02-18 14:43:00,28.8,21.2,29.88,NW,311,14.0,29.0,73,0.00,,---,0.02,VWS V14.01,2013-02-18 20:43:00,
2013-02-18 14:51:00,29.0,21.1,29.88,NW,307,20.0,29.0,72,0.00,,---,0.02,VWS V14.01,2013-02-18 20:51:00,
2013-02-18 14:57:00,29.0,20.8,29.88,NW,307,7.0,29.0,71,0.00,,---,0.02,VWS V14.01,2013-02-18 20:57:00,
2013-02-18 15:03:00,29.0,20.8,29.88,WNW,292,24.0,24.0,71,0.00,,---,0.02,VWS V14.01,2013-02-18 21:03:00,
2013-02-18 15:10:00,29.5,21.3,29.89,West,279,19.0,24.0,71,0.00,,---,0.02,VWS V14.01,2013-02-18 21:10:00,
2013-02-18 15:16:00,29.2,20.6,29.88,NNW,330,21.0,32.0,70,0.00,,---,0.02,VWS V14.01,2013-02-18 21:16:00,
2013-02-18 15:22:00,29.5,20.3,29.89,WNW,292,18.0,34.0,68,0.00,,---,0.02,VWS V14.01,2013-02-18 21:22:00,
2013-02-18 15:28:00,30.0,20.7,29.89,NNW,341,15.0,34.0,68,0.00,,---,0.02,VWS V14.01,2013-02-18 21:28:00,
2013-02-18 15:34:00,30.5,20.5,29.89,WNW,302,7.0,25.0,66,0.00,,---,0.02,VWS V14.01,2013-02-18 21:34:00,
2013-02-18 15:40:00,30.3,19.6,29.89,WNW,302,17.0,25.0,64,0.00,,---,0.02,VWS V14.01,2013-02-18 21:40:00,
2013-02-18 15:46:00,29.8,19.5,29.90,NNW,327,14.0,29.0,65,0.00,,---,0.02,VWS V14.01,2013-02-18 21:46:00,
2013-02-18 15:52:00,29.2,19.3,29.89,NW,307,11.0,29.0,66,0.00,,---,0.02,VWS V14.01,2013-02-18 21:52:00,
2013-02-18 15:58:00,29.5,20.3,29.89,NW,315,13.0,29.0,68,0.00,,---,0.02,VWS V14.01,2013-02-18 21:58:00,
2013-02-18 16:04:00,29.9,19.6,29.89,NW,315,21.0,27.0,65,0.00,,---,0.02,VWS V14.01,2013-02-18 22:04:00,
2013-02-18 16:10:00,30.0,20.0,29.90,SW,236,19.0,27.0,66,0.00,,---,0.02,VWS V14.01,2013-02-18 22:10:00,
2013-02-18 16:16:00,29.9,19.6,29.90,WNW,285,24.0,27.0,65,0.00,,---,0.02,VWS V14.01,2013-02-18 22:16:00,
2013-02-18 16:22:00,29.3,19.0,29.91,NW,313,31.0,36.0,65,0.00,,---,0.02,VWS V14.01,2013-02-18 22:22:00,
2013-02-18 16:28:00,29.0,19.1,29.91,WNW,287,14.0,36.0,66,0.00,,---,0.02,VWS V14.01,2013-02-18 22:28:00,
2013-02-18 16:34:00,28.8,19.2,29.91,West,269,15.0,25.0,67,0.00,,---,0.02,VWS V14.01,2013-02-18 22:34:00,
2013-02-18 16:41:00,28.9,19.3,29.91,West,275,13.0,25.0,67,0.00,,---,0.02,VWS V14.01,2013-02-18 22:41:00,
2013-02-18 16:47:00,29.0,19.4,29.92,West,269,20.0,25.0,67,0.00,,---,0.02,VWS V14.01,2013-02-18 22:47:00,
2013-02-18 16:53:00,28.8,18.9,29.92,NW,304,19.0,31.0,66,0.00,,---,0.02,VWS V14.01,2013-02-18 22:53:00,
2013-02-18 16:59:00,28.5,18.6,29.93,WNW,288,10.0,31.0,66,0.00,,---,0.02,VWS V14.01,2013-02-18 22:59:00,
2013-02-18 17:05:00,28.4,18.5,29.93,NW,315,14.0,32.0,66,0.00,,---,0.02,VWS V14.01,2013-02-18 23:05:00,
2013-02-18 17:11:00,28.3,18.8,29.93,WNW,296,16.0,32.0,67,0.00,,---,0.02,VWS V14.01,2013-02-18 23:11:00,
2013-02-18 17:17:00,28.3,18.8,29.93,NW,306,6.0,32.0,67,0.00,,---,0.02,VWS V14.01,2013-02-18 23:17:00,
2013-02-18 17:23:00,28.3,19.1,29.94,West,276,5.0,32.0,68,0.00,,---,0.02,VWS V14.01,2013-02-18 23:23:00,
2013-02-18 17:29:00,28.2,19.0,29.94,NNW,338,9.0,32.0,68,0.00,,---,0.02,VWS V14.01,2013-02-18 23:29:00,
2013-02-18 17:35:00,28.1,18.6,29.94,WNW,299,15.0,24.0,67,0.00,,---,0.02,VWS V14.01,2013-02-18 23:35:00,
2013-02-18 17:41:00,27.9,18.7,29.94,WNW,291,7.0,25.0,68,0.00,,---,0.02,VWS V14.01,2013-02-18 23:41:00,
2013-02-18 17:47:00,27.7,18.5,29.95,WNW,292,10.0,25.0,68,0.00,,---,0.02,VWS V14.01,2013-02-18 23:47:00,
2013-02-18 17:53:00,27.5,18.7,29.95,WNW,297,11.0,25.0,69,0.00,,---,0.02,VWS V14.01,2013-02-18 23:53:00,
2013-02-18 17:59:00,27.2,18.4,29.95,NW,313,12.0,25.0,69,0.00,,---,0.02,VWS V14.01,2013-02-18 23:59:00,
2013-02-18 18:06:00,27.0,17.9,29.97,WNW,302,12.0,24.0,68,0.00,,---,0.02,VWS V14.01,2013-02-19 00:06:00,
2013-02-18 18:12:00,26.8,18.0,29.97,NW,325,8.0,24.0,69,0.00,,---,0.02,VWS V14.01,2013-02-19 00:12:00,
2013-02-18 18:18:00,26.6,17.8,29.97,NW,314,14.0,24.0,69,0.00,,---,0.02,VWS V14.01,2013-02-19 00:18:00,
2013-02-18 18:24:00,26.3,17.5,29.97,WNW,284,10.0,24.0,69,0.00,,---,0.02,VWS V14.01,2013-02-19 00:24:00,
2013-02-18 18:30:00,26.1,17.7,29.97,WNW,284,7.0,24.0,70,0.00,,---,0.02,VWS V14.01,2013-02-19 00:30:00,
2013-02-18 18:36:00,26.0,17.6,29.98,WNW,299,8.0,16.0,70,0.00,,---,0.02,VWS V14.01,2013-02-19 00:36:00,
2013-02-18 18:42:00,25.8,17.4,29.98,WNW,301,9.0,18.0,70,0.00,,---,0.02,VWS V14.01,2013-02-19 00:42:00,
2013-02-18 18:48:00,25.7,19.2,29.98,NW,309,10.0,18.0,76,0.00,,---,0.02,VWS V14.01,2013-02-19 00:48:00,
2013-02-18 18:54:00,25.6,17.5,29.98,NW,306,9.0,18.0,71,0.00,,---,0.02,VWS V14.01,2013-02-19 00:54:00,
2013-02-18 19:01:00,25.6,17.5,29.99,West,267,13.0,18.0,71,0.00,,---,0.02,VWS V14.01,2013-02-19 01:01:00,
2013-02-18 19:07:00,25.5,17.4,29.99,WNW,287,10.0,15.0,71,0.00,,---,0.02,VWS V14.01,2013-02-19 01:07:00,
2013-02-18 19:13:00,25.4,17.6,29.99,WNW,283,7.0,16.0,72,0.00,,---,0.02,VWS V14.01,2013-02-19 01:13:00,
2013-02-18 19:19:00,25.4,17.6,30.00,NW,319,11.0,19.0,72,0.00,,---,0.02,VWS V14.01,2013-02-19 01:19:00,
2013-02-18 19:25:00,25.4,17.6,30.00,WNW,296,9.0,20.0,72,0.00,,---,0.02,VWS V14.01,2013-02-19 01:25:00,
2013-02-18 19:31:00,25.4,17.6,30.00,WNW,294,11.0,20.0,72,0.00,,---,0.02,VWS V14.01,2013-02-19 01:31:00,
2013-02-18 19:37:00,25.2,17.5,30.00,NW,323,11.0,22.0,72,0.00,,---,0.02,VWS V14.01,2013-02-19 01:37:00,
2013-02-18 19:43:00,24.9,17.2,30.01,NW,318,10.0,22.0,72,0.00,,---,0.02,VWS V14.01,2013-02-19 01:43:00,
2013-02-18 19:49:00,24.5,16.5,30.01,NW,319,23.0,23.0,71,0.00,,---,0.02,VWS V14.01,2013-02-19 01:49:00,
2013-02-18 19:58:00,24.1,16.4,30.01,WNW,302,6.0,23.0,72,0.00,,---,0.02,VWS V14.01,2013-02-19 01:58:00,
2013-02-18 20:04:00,23.8,16.4,30.01,NW,318,14.0,19.0,73,0.00,,---,0.02,VWS V14.01,2013-02-19 02:04:00,
2013-02-18 20:10:00,23.6,16.2,30.02,NW,325,7.0,19.0,73,0.00,,---,0.02,VWS V14.01,2013-02-19 02:10:00,
2013-02-18 20:16:00,23.3,16.2,30.02,NW,313,6.0,19.0,74,0.00,,---,0.02,VWS V14.01,2013-02-19 02:16:00,
2013-02-18 20:22:00,23.1,16.1,30.02,NW,318,22.0,23.0,74,0.00,,---,0.02,VWS V14.01,2013-02-19 02:22:00,
2013-02-18 20:28:00,22.9,16.2,30.02,NW,320,7.0,23.0,75,0.00,,---,0.02,VWS V14.01,2013-02-19 02:28:00,
2013-02-18 20:34:00,22.5,15.8,30.02,WNW,303,7.0,15.0,75,0.00,,---,0.02,VWS V14.01,2013-02-19 02:34:00,
2013-02-18 20:40:00,22.2,15.8,30.03,NW,311,7.0,15.0,76,0.00,,---,0.02,VWS V14.01,2013-02-19 02:40:00,
2013-02-18 20:46:00,22.0,15.6,30.03,WNW,300,9.0,15.0,76,0.00,,---,0.02,VWS V14.01,2013-02-19 02:46:00,
2013-02-18 20:53:00,21.8,15.7,30.03,NW,319,8.0,15.0,77,0.00,,---,0.02,VWS V14.01,2013-02-19 02:53:00,
2013-02-18 21:01:00,21.6,15.5,30.03,NW,309,6.0,15.0,77,0.00,,---,0.02,VWS V14.01,2013-02-19 03:01:00,
2013-02-18 21:07:00,21.5,15.7,30.04,WNW,303,8.0,19.0,78,0.00,,---,0.02,VWS V14.01,2013-02-19 03:07:00,
2013-02-18 21:13:00,21.5,15.7,30.04,West,276,6.0,19.0,78,0.00,,---,0.02,VWS V14.01,2013-02-19 03:13:00,
2013-02-18 21:19:00,21.4,15.6,30.04,NW,313,7.0,19.0,78,0.00,,---,0.02,VWS V14.01,2013-02-19 03:19:00,
2013-02-18 21:25:00,21.3,15.5,30.05,WNW,283,5.0,19.0,78,0.00,,---,0.02,VWS V14.01,2013-02-19 03:25:00,
2013-02-18 21:31:00,21.1,15.6,30.05,NW,306,5.0,19.0,79,0.00,,---,0.02,VWS V14.01,2013-02-19 03:31:00,
2013-02-18 21:38:00,20.9,15.4,30.05,NW,322,12.0,12.0,79,0.00,,---,0.02,VWS V14.01,2013-02-19 03:38:00,
2013-02-18 21:44:00,20.9,15.4,30.05,WNW,298,4.0,13.0,79,0.00,,---,0.02,VWS V14.01,2013-02-19 03:44:00,
2013-02-18 21:50:00,20.8,15.3,30.06,NW,312,5.0,13.0,79,0.00,,---,0.02,VWS V14.01,2013-02-19 03:50:00,
2013-02-18 21:56:00,20.8,15.3,30.06,NW,306,11.0,13.0,79,0.00,,---,0.02,VWS V14.01,2013-02-19 03:56:00,
2013-02-18 22:02:00,20.8,15.3,30.06,NW,317,9.0,9.0,79,0.00,,---,0.02,VWS V14.01,2013-02-19 04:02:00,
2013-02-18 22:08:00,20.8,15.3,30.07,WNW,291,5.0,13.0,79,0.00,,---,0.02,VWS V14.01,2013-02-19 04:08:00,
2013-02-18 22:14:00,20.7,15.2,30.07,NW,309,5.0,13.0,79,0.00,,---,0.02,VWS V14.01,2013-02-19 04:14:00,
2013-02-18 22:20:00,20.6,15.4,30.07,WNW,302,8.0,13.0,80,0.00,,---,0.02,VWS V14.01,2013-02-19 04:20:00,
2013-02-18 22:26:00,20.6,15.4,30.08,NW,311,8.0,13.0,80,0.00,,---,0.02,VWS V14.01,2013-02-19 04:26:00,
2013-02-18 22:32:00,20.5,15.3,30.08,WNW,287,11.0,11.0,80,0.00,,---,0.02,VWS V14.01,2013-02-19 04:32:00,
2013-02-18 22:38:00,20.6,15.4,30.08,NW,319,11.0,19.0,80,0.00,,---,0.02,VWS V14.01,2013-02-19 04:38:00,
2013-02-18 22:44:00,20.7,15.2,30.09,WNW,294,4.0,19.0,79,0.00,,---,0.02,VWS V14.01,2013-02-19 04:44:00,
2013-02-18 22:51:00,20.8,15.3,30.09,NW,304,8.0,19.0,79,0.00,,---,0.02,VWS V14.01,2013-02-19 04:51:00,
2013-02-18 22:57:00,20.7,15.2,30.09,NW,311,5.0,19.0,79,0.00,,---,0.02,VWS V14.01,2013-02-19 04:57:00,
2013-02-18 23:01:00,20.7,15.2,30.09,NW,314,6.0,19.0,79,0.00,,---,0.02,VWS V14.01,2013-02-19 05:01:00,
2013-02-18 23:03:00,20.7,15.2,30.09,WNW,290,8.0,10.0,79,0.00,,---,0.02,VWS V14.01,2013-02-19 05:03:00,
2013-02-18 23:09:00,20.8,15.6,30.09,WSW,245,5.0,12.0,80,0.00,,---,0.02,VWS V14.01,2013-02-19 05:09:00,
2013-02-18 23:15:00,21.2,16.0,30.09,West,274,3.0,12.0,80,0.00,,---,0.02,VWS V14.01,2013-02-19 05:15:00,
2013-02-18 23:21:00,21.3,16.1,30.09,WNW,290,7.0,12.0,80,0.00,,---,0.02,VWS V14.01,2013-02-19 05:21:00,
2013-02-18 23:27:00,21.5,16.3,30.09,West,271,5.0,12.0,80,0.00,,---,0.02,VWS V14.01,2013-02-19 05:27:00,
2013-02-18 23:33:00,21.6,16.4,30.09,NW,325,7.0,10.0,80,0.00,,---,0.02,VWS V14.01,2013-02-19 05:33:00,
2013-02-18 23:39:00,21.7,16.5,30.09,WNW,286,9.0,13.0,80,0.00,,---,0.02,VWS V14.01,2013-02-19 05:39:00,
2013-02-18 23:45:00,21.9,16.7,30.09,WNW,300,9.0,13.0,80,0.00,,---,0.02,VWS V14.01,2013-02-19 05:45:00,
2013-02-18 23:51:00,22.0,16.8,30.10,WNW,291,7.0,15.0,80,0.00,,---,0.02,VWS V14.01,2013-02-19 05:51:00,
2013-02-18 23:57:00,22.0,16.5,30.10,WNW,303,7.0,15.0,79,0.00,,---,0.02,VWS V14.01,2013-02-19 05:57:00,